AFR331E KBOS-LFPG
Flight info
| Callsign | AFR331E |
|---|---|
| Flight time | 6h 39m |
| Altitude | 35000 |
| Route | CELTK7 CELTK DCT FRILL DCT KANNI DCT SUPRY/M083F350 DCT 46N050W 48N040W 50N030W 51N020W DCT DINIM DCT ELSOX DCT LULOX/N0479F350 DCT NAKID DCT ANNET UM25 LUKIP |
| Aircraft | A359/H-SABDE2E3GHIJ1J2J3J4J5M1P2RWXYZ/LB1D1 |
Departure
| Time | 2026-05-04 16:16 |
|---|---|
| Airport | Boston Logan International Airport (KBOS) |
Arrival
| Time | 2026-05-04 22:55 |
|---|---|
| Airport | Charles de Gaulle International Airport (LFPG) |
| Time | Latitude | Longitude | Altitude | Speed | Heading |
|---|---|---|---|---|---|
| 2026-05-04 15:32 | 42.37079 | -71.01860 | 32 ft | 0 kts | 211° |
| 2026-05-04 16:03 | 42.37084 | -71.01855 | 32 ft | 4 kts | 209° |
| 2026-05-04 16:03 | 42.37108 | -71.01840 | 32 ft | 4 kts | 195° |
| 2026-05-04 16:03 | 42.37135 | -71.01834 | 31 ft | 4 kts | 177° |
| 2026-05-04 16:04 | 42.37160 | -71.01841 | 30 ft | 4 kts | 150° |
| 2026-05-04 16:04 | 42.37176 | -71.01859 | 30 ft | 0 kts | 123° |
| 2026-05-04 16:07 | 42.37166 | -71.01838 | 32 ft | 5 kts | 124° |
| 2026-05-04 16:07 | 42.37141 | -71.01787 | 32 ft | 0 kts | 122° |
| 2026-05-04 16:08 | 42.37140 | -71.01786 | 32 ft | 0 kts | 117° |
| 2026-05-04 16:09 | 42.37143 | -71.01689 | 32 ft | 11 kts | 78° |
| 2026-05-04 16:09 | 42.37069 | -71.01523 | 32 ft | 12 kts | 135° |
| 2026-05-04 16:10 | 42.36934 | -71.01329 | 32 ft | 15 kts | 117° |
| 2026-05-04 16:11 | 42.37116 | -71.01027 | 32 ft | 17 kts | 27° |
| 2026-05-04 16:11 | 42.37224 | -71.00955 | 32 ft | 18 kts | 26° |
| 2026-05-04 16:12 | 42.37582 | -71.00771 | 32 ft | 11 kts | 25° |
| 2026-05-04 16:12 | 42.37610 | -71.00662 | 32 ft | 0 kts | 103° |
| 2026-05-04 16:14 | 42.37560 | -71.00594 | 32 ft | 6 kts | 179° |
| 2026-05-04 16:14 | 42.37525 | -71.00605 | 33 ft | 0 kts | 198° |
| 2026-05-04 16:15 | 42.35329 | -71.01689 | 568 ft | 182 kts | 201° |
| 2026-05-04 16:16 | 42.32769 | -71.02017 | 2502 ft | 195 kts | 165° |
| 2026-05-04 16:16 | 42.30646 | -70.97858 | 5495 ft | 190 kts | 79° |
| 2026-05-04 16:17 | 42.31115 | -70.94360 | 6978 ft | 205 kts | 75° |
| 2026-05-04 16:18 | 42.32269 | -70.87615 | 8413 ft | 275 kts | 78° |
| 2026-05-04 16:18 | 42.32647 | -70.85056 | 9290 ft | 281 kts | 79° |
| 2026-05-04 16:19 | 42.33008 | -70.76974 | 11249 ft | 308 kts | 99° |
| 2026-05-04 16:19 | 42.32209 | -70.70942 | 11928 ft | 345 kts | 100° |
| 2026-05-04 16:20 | 42.30950 | -70.60930 | 13664 ft | 369 kts | 97° |
| 2026-05-04 16:20 | 42.30398 | -70.53971 | 14997 ft | 376 kts | 96° |
| 2026-05-04 16:21 | 42.29515 | -70.43279 | 16867 ft | 387 kts | 96° |
| 2026-05-04 16:22 | 42.28889 | -70.35982 | 18104 ft | 395 kts | 97° |
| 2026-05-04 16:22 | 42.27915 | -70.24787 | 19941 ft | 406 kts | 97° |
| 2026-05-04 16:23 | 42.26903 | -70.13296 | 21679 ft | 416 kts | 97° |
| 2026-05-04 16:24 | 42.25077 | -69.97604 | 23838 ft | 430 kts | 101° |
| 2026-05-04 16:25 | 42.23957 | -69.89614 | 24851 ft | 437 kts | 101° |
| 2026-05-04 16:26 | 42.24345 | -69.73191 | 26717 ft | 449 kts | 79° |
| 2026-05-04 16:26 | 42.26321 | -69.60689 | 28029 ft | 459 kts | 77° |
| 2026-05-04 16:27 | 42.27665 | -69.52218 | 28835 ft | 464 kts | 78° |
| 2026-05-04 16:28 | 42.29649 | -69.39292 | 29980 ft | 473 kts | 78° |
| 2026-05-04 16:28 | 42.31638 | -69.26131 | 31004 ft | 480 kts | 78° |
| 2026-05-04 16:29 | 42.34316 | -69.08270 | 32183 ft | 489 kts | 78° |
| 2026-05-04 16:30 | 42.36336 | -68.94662 | 32959 ft | 495 kts | 78° |
| 2026-05-04 16:31 | 42.37677 | -68.85563 | 33704 ft | 492 kts | 78° |
| 2026-05-04 16:31 | 42.39666 | -68.71972 | 34671 ft | 490 kts | 79° |
| 2026-05-04 16:32 | 42.41639 | -68.58370 | 35001 ft | 491 kts | 79° |
| 2026-05-04 16:33 | 42.44249 | -68.40191 | 34996 ft | 492 kts | 79° |
| 2026-05-04 16:34 | 42.46187 | -68.26547 | 35000 ft | 492 kts | 79° |
| 2026-05-04 16:35 | 42.49923 | -67.99899 | 34998 ft | 492 kts | 79° |
| 2026-05-04 16:36 | 42.51815 | -67.86225 | 35004 ft | 492 kts | 79° |
| 2026-05-04 16:37 | 42.53689 | -67.72546 | 34997 ft | 492 kts | 79° |
| 2026-05-04 16:38 | 42.56163 | -67.54298 | 35003 ft | 492 kts | 79° |
| 2026-05-04 16:39 | 42.59215 | -67.31462 | 35004 ft | 492 kts | 79° |
| 2026-05-04 16:40 | 42.61625 | -67.13171 | 35002 ft | 492 kts | 80° |
| 2026-05-04 16:41 | 42.65798 | -66.90708 | 35004 ft | 492 kts | 70° |
| 2026-05-04 16:43 | 42.71646 | -66.68857 | 35000 ft | 492 kts | 70° |
| 2026-05-04 16:43 | 42.75124 | -66.55718 | 34999 ft | 492 kts | 70° |
| 2026-05-04 16:45 | 42.81635 | -66.30881 | 35001 ft | 492 kts | 70° |
| 2026-05-04 16:46 | 42.87341 | -66.08904 | 34994 ft | 492 kts | 70° |
| 2026-05-04 16:47 | 42.91878 | -65.91289 | 34999 ft | 492 kts | 70° |
| 2026-05-04 16:48 | 42.96384 | -65.73657 | 35000 ft | 492 kts | 71° |
| 2026-05-04 16:49 | 43.00865 | -65.55993 | 35000 ft | 492 kts | 71° |
| 2026-05-04 16:50 | 43.05304 | -65.38362 | 35001 ft | 492 kts | 71° |
| 2026-05-04 16:51 | 43.08627 | -65.25077 | 35004 ft | 492 kts | 71° |
| 2026-05-04 16:52 | 43.13048 | -65.07284 | 35002 ft | 492 kts | 71° |
| 2026-05-04 16:53 | 43.16334 | -64.93970 | 35004 ft | 492 kts | 71° |
| 2026-05-04 16:54 | 43.20677 | -64.76252 | 35000 ft | 492 kts | 71° |
| 2026-05-04 16:55 | 43.27162 | -64.49539 | 35000 ft | 492 kts | 71° |
| 2026-05-04 16:56 | 43.32518 | -64.27234 | 34994 ft | 492 kts | 72° |
| 2026-05-04 16:57 | 43.35711 | -64.13834 | 35001 ft | 492 kts | 72° |
| 2026-05-04 16:58 | 43.39942 | -63.95949 | 35002 ft | 492 kts | 72° |
| 2026-05-04 17:00 | 43.46240 | -63.69063 | 35000 ft | 492 kts | 72° |
| 2026-05-04 17:01 | 43.51440 | -63.46617 | 35004 ft | 492 kts | 72° |
| 2026-05-04 17:02 | 43.55569 | -63.28630 | 34999 ft | 492 kts | 72° |
| 2026-05-04 17:03 | 43.58646 | -63.15126 | 35002 ft | 492 kts | 72° |
| 2026-05-04 17:03 | 43.61707 | -63.01610 | 35001 ft | 492 kts | 72° |
| 2026-05-04 17:04 | 43.65765 | -62.83564 | 34997 ft | 492 kts | 72° |
| 2026-05-04 17:05 | 43.69793 | -62.65496 | 34997 ft | 492 kts | 73° |
| 2026-05-04 17:06 | 43.72796 | -62.51927 | 35002 ft | 492 kts | 73° |
| 2026-05-04 17:07 | 43.75446 | -62.39884 | 35004 ft | 492 kts | 73° |
| 2026-05-04 17:07 | 43.77764 | -62.29288 | 35000 ft | 492 kts | 73° |
| 2026-05-04 17:08 | 43.80712 | -62.15739 | 35001 ft | 492 kts | 73° |
| 2026-05-04 17:09 | 43.82676 | -62.06664 | 34998 ft | 492 kts | 73° |
| 2026-05-04 17:09 | 43.84646 | -61.97525 | 35003 ft | 492 kts | 73° |
| 2026-05-04 17:10 | 43.89508 | -61.74787 | 34995 ft | 492 kts | 73° |
| 2026-05-04 17:11 | 43.91440 | -61.65683 | 35002 ft | 492 kts | 73° |
| 2026-05-04 17:12 | 43.94311 | -61.52081 | 35002 ft | 492 kts | 73° |
| 2026-05-04 17:13 | 43.99082 | -61.29272 | 34997 ft | 492 kts | 74° |
| 2026-05-04 17:14 | 44.02866 | -61.11004 | 35001 ft | 492 kts | 74° |
| 2026-05-04 17:15 | 44.05686 | -60.97281 | 34998 ft | 492 kts | 74° |
| 2026-05-04 17:16 | 44.09417 | -60.78977 | 34993 ft | 492 kts | 74° |
| 2026-05-04 17:17 | 44.13122 | -60.60638 | 34994 ft | 492 kts | 74° |
| 2026-05-04 17:18 | 44.16796 | -60.42282 | 35004 ft | 492 kts | 74° |
| 2026-05-04 17:19 | 44.20441 | -60.23897 | 35004 ft | 492 kts | 75° |
| 2026-05-04 17:20 | 44.24044 | -60.05558 | 34997 ft | 492 kts | 75° |
| 2026-05-04 17:20 | 44.26736 | -59.91743 | 35004 ft | 492 kts | 75° |
| 2026-05-04 17:21 | 44.30301 | -59.73294 | 35002 ft | 492 kts | 75° |
| 2026-05-04 17:22 | 44.32071 | -59.64068 | 35003 ft | 492 kts | 75° |
| 2026-05-04 17:23 | 44.35590 | -59.45591 | 34998 ft | 492 kts | 75° |
| 2026-05-04 17:24 | 44.38210 | -59.31721 | 35002 ft | 492 kts | 75° |
| 2026-05-04 17:25 | 44.41676 | -59.13210 | 35001 ft | 492 kts | 75° |
| 2026-05-04 17:26 | 44.45113 | -58.94671 | 34996 ft | 492 kts | 75° |
| 2026-05-04 17:27 | 44.49368 | -58.71466 | 34998 ft | 492 kts | 76° |
| 2026-05-04 17:28 | 44.52736 | -58.52885 | 34998 ft | 492 kts | 76° |
| 2026-05-04 17:29 | 44.57454 | -58.26541 | 35004 ft | 492 kts | 76° |
| 2026-05-04 17:31 | 44.61570 | -58.03237 | 35004 ft | 492 kts | 76° |
| 2026-05-04 17:32 | 44.65638 | -57.79907 | 34997 ft | 492 kts | 76° |
| 2026-05-04 17:33 | 44.68858 | -57.61221 | 35002 ft | 492 kts | 76° |
| 2026-05-04 17:34 | 44.72049 | -57.42504 | 35004 ft | 492 kts | 76° |
| 2026-05-04 17:35 | 44.75993 | -57.19088 | 35004 ft | 492 kts | 77° |
| 2026-05-04 17:36 | 44.77557 | -57.09715 | 34999 ft | 492 kts | 77° |
| 2026-05-04 17:36 | 44.79115 | -57.00330 | 34994 ft | 492 kts | 77° |
| 2026-05-04 17:37 | 44.80663 | -56.90950 | 35003 ft | 492 kts | 77° |
| 2026-05-04 17:37 | 44.82204 | -56.81556 | 35003 ft | 492 kts | 77° |
| 2026-05-04 17:38 | 44.83737 | -56.72167 | 34991 ft | 492 kts | 77° |
| 2026-05-04 17:38 | 44.85263 | -56.62762 | 34998 ft | 492 kts | 77° |
| 2026-05-04 17:39 | 44.87538 | -56.48650 | 35001 ft | 492 kts | 77° |
| 2026-05-04 17:39 | 44.89033 | -56.39307 | 34997 ft | 492 kts | 77° |
| 2026-05-04 17:40 | 44.90533 | -56.29886 | 34995 ft | 492 kts | 77° |
| 2026-05-04 17:40 | 44.92024 | -56.20462 | 35002 ft | 492 kts | 77° |
| 2026-05-04 17:41 | 44.93508 | -56.11033 | 35004 ft | 492 kts | 77° |
| 2026-05-04 17:41 | 44.94983 | -56.01604 | 34997 ft | 492 kts | 77° |
| 2026-05-04 17:42 | 44.96451 | -55.92162 | 34999 ft | 492 kts | 77° |
| 2026-05-04 17:42 | 44.97911 | -55.82723 | 35003 ft | 492 kts | 77° |
| 2026-05-04 17:43 | 44.99364 | -55.73274 | 34998 ft | 492 kts | 78° |
| 2026-05-04 17:43 | 45.00807 | -55.63828 | 35005 ft | 492 kts | 78° |
| 2026-05-04 17:44 | 45.02244 | -55.54370 | 35001 ft | 492 kts | 78° |
| 2026-05-04 17:44 | 45.03674 | -55.44904 | 34997 ft | 492 kts | 78° |
| 2026-05-04 17:45 | 45.05094 | -55.35440 | 35002 ft | 492 kts | 78° |
| 2026-05-04 17:45 | 45.06498 | -55.26036 | 35000 ft | 492 kts | 78° |
| 2026-05-04 17:46 | 45.07903 | -55.16560 | 35005 ft | 492 kts | 78° |
| 2026-05-04 17:46 | 45.09301 | -55.07079 | 35002 ft | 492 kts | 78° |
| 2026-05-04 17:47 | 45.10691 | -54.97593 | 34994 ft | 492 kts | 78° |
| 2026-05-04 17:47 | 45.12072 | -54.88108 | 34999 ft | 492 kts | 78° |
| 2026-05-04 17:48 | 45.13447 | -54.78614 | 35005 ft | 492 kts | 78° |
| 2026-05-04 17:48 | 45.14813 | -54.69116 | 35003 ft | 492 kts | 78° |
| 2026-05-04 17:49 | 45.16171 | -54.59616 | 35002 ft | 492 kts | 78° |
| 2026-05-04 17:49 | 45.17521 | -54.50107 | 35004 ft | 492 kts | 78° |
| 2026-05-04 17:50 | 45.18864 | -54.40591 | 34991 ft | 492 kts | 78° |
| 2026-05-04 17:50 | 45.20199 | -54.31073 | 35004 ft | 492 kts | 79° |
| 2026-05-04 17:51 | 45.21525 | -54.21560 | 34998 ft | 492 kts | 79° |
| 2026-05-04 17:51 | 45.22844 | -54.12034 | 34997 ft | 492 kts | 79° |
| 2026-05-04 17:52 | 45.24155 | -54.02502 | 34998 ft | 492 kts | 79° |
| 2026-05-04 17:52 | 45.25458 | -53.92968 | 35002 ft | 492 kts | 79° |
| 2026-05-04 17:53 | 45.26753 | -53.83434 | 35001 ft | 492 kts | 79° |
| 2026-05-04 17:53 | 45.28040 | -53.73890 | 34994 ft | 492 kts | 79° |
| 2026-05-04 17:54 | 45.29319 | -53.64341 | 34998 ft | 492 kts | 79° |
| 2026-05-04 17:54 | 45.30591 | -53.54787 | 35001 ft | 492 kts | 79° |
| 2026-05-04 17:55 | 45.31854 | -53.45236 | 35001 ft | 492 kts | 79° |
| 2026-05-04 17:55 | 45.33109 | -53.35675 | 35000 ft | 492 kts | 79° |
| 2026-05-04 17:56 | 45.34356 | -53.26113 | 34993 ft | 492 kts | 79° |
| 2026-05-04 17:56 | 45.35596 | -53.16539 | 35001 ft | 492 kts | 79° |
| 2026-05-04 17:57 | 45.36827 | -53.06974 | 35005 ft | 492 kts | 79° |
| 2026-05-04 17:57 | 45.38043 | -52.97456 | 34998 ft | 492 kts | 79° |
| 2026-05-04 17:58 | 45.39258 | -52.87875 | 35000 ft | 492 kts | 79° |
| 2026-05-04 17:58 | 45.40473 | -52.78226 | 35002 ft | 492 kts | 80° |
| 2026-05-04 17:59 | 45.41664 | -52.68706 | 35004 ft | 492 kts | 80° |
| 2026-05-04 18:00 | 45.43448 | -52.54318 | 34999 ft | 492 kts | 80° |
| 2026-05-04 18:00 | 45.44627 | -52.44716 | 35004 ft | 492 kts | 80° |
| 2026-05-04 18:01 | 45.45799 | -52.35112 | 35002 ft | 492 kts | 80° |
| 2026-05-04 18:01 | 45.46962 | -52.25505 | 35003 ft | 492 kts | 80° |
| 2026-05-04 18:02 | 45.48691 | -52.11091 | 35002 ft | 492 kts | 80° |
| 2026-05-04 18:02 | 45.49904 | -52.01496 | 35000 ft | 492 kts | 76° |
| 2026-05-04 18:03 | 45.52016 | -51.92219 | 35004 ft | 492 kts | 70° |
| 2026-05-04 18:03 | 45.54375 | -51.83053 | 34993 ft | 492 kts | 69° |
| 2026-05-04 18:04 | 45.56751 | -51.73968 | 35001 ft | 492 kts | 69° |
| 2026-05-04 18:05 | 45.60321 | -51.60166 | 35003 ft | 492 kts | 70° |
| 2026-05-04 18:05 | 45.62672 | -51.50987 | 34997 ft | 492 kts | 70° |
| 2026-05-04 18:06 | 45.66166 | -51.37272 | 35000 ft | 492 kts | 70° |
| 2026-05-04 18:06 | 45.68498 | -51.28075 | 34995 ft | 492 kts | 70° |
| 2026-05-04 18:07 | 45.70820 | -51.18880 | 35002 ft | 492 kts | 70° |
| 2026-05-04 18:07 | 45.73137 | -51.09667 | 35001 ft | 492 kts | 70° |
| 2026-05-04 18:08 | 45.75446 | -51.00453 | 34996 ft | 492 kts | 70° |
| 2026-05-04 18:08 | 45.77744 | -50.91240 | 35001 ft | 492 kts | 70° |
| 2026-05-04 18:09 | 45.82322 | -50.72782 | 35000 ft | 491 kts | 70° |
| 2026-05-04 18:10 | 45.84600 | -50.63539 | 35004 ft | 491 kts | 70° |
| 2026-05-04 18:10 | 45.86871 | -50.54289 | 34993 ft | 491 kts | 70° |
| 2026-05-04 18:11 | 45.89133 | -50.45038 | 34997 ft | 491 kts | 70° |
| 2026-05-04 18:11 | 45.91387 | -50.35780 | 34996 ft | 491 kts | 71° |
| 2026-05-04 18:12 | 45.93632 | -50.26519 | 34998 ft | 491 kts | 71° |
| 2026-05-04 18:12 | 45.95872 | -50.17243 | 35004 ft | 491 kts | 71° |
| 2026-05-04 18:13 | 45.98103 | -50.07965 | 35002 ft | 491 kts | 71° |
| 2026-05-04 18:14 | 46.01445 | -49.94119 | 35004 ft | 491 kts | 70° |
| 2026-05-04 18:14 | 46.03777 | -49.84886 | 34999 ft | 491 kts | 70° |
| 2026-05-04 18:15 | 46.08427 | -49.66407 | 35001 ft | 491 kts | 70° |
| 2026-05-04 18:16 | 46.10726 | -49.57147 | 34995 ft | 491 kts | 70° |
| 2026-05-04 18:16 | 46.13014 | -49.47884 | 34992 ft | 491 kts | 70° |
| 2026-05-04 18:17 | 46.16434 | -49.33973 | 35001 ft | 491 kts | 70° |
| 2026-05-04 18:18 | 46.19469 | -49.21558 | 35003 ft | 490 kts | 70° |
| 2026-05-04 18:18 | 46.21730 | -49.12265 | 35002 ft | 490 kts | 70° |
| 2026-05-04 18:19 | 46.25105 | -48.98318 | 35003 ft | 490 kts | 71° |
| 2026-05-04 18:19 | 46.27345 | -48.89015 | 35002 ft | 490 kts | 71° |
| 2026-05-04 18:20 | 46.29563 | -48.79759 | 35004 ft | 490 kts | 71° |
| 2026-05-04 18:20 | 46.31788 | -48.70441 | 35001 ft | 490 kts | 71° |
| 2026-05-04 18:21 | 46.34004 | -48.61118 | 34997 ft | 490 kts | 71° |
| 2026-05-04 18:21 | 46.36215 | -48.51781 | 35000 ft | 490 kts | 71° |
| 2026-05-04 18:22 | 46.38416 | -48.42444 | 35000 ft | 490 kts | 71° |
| 2026-05-04 18:22 | 46.40607 | -48.33107 | 35003 ft | 490 kts | 71° |
| 2026-05-04 18:23 | 46.42794 | -48.23752 | 35001 ft | 490 kts | 71° |
| 2026-05-04 18:23 | 46.44969 | -48.14402 | 35003 ft | 490 kts | 71° |
| 2026-05-04 18:24 | 46.47141 | -48.05030 | 35002 ft | 490 kts | 71° |
| 2026-05-04 18:24 | 46.49303 | -47.95659 | 35001 ft | 490 kts | 71° |
| 2026-05-04 18:25 | 46.51457 | -47.86283 | 35001 ft | 490 kts | 71° |
| 2026-05-04 18:25 | 46.53602 | -47.76905 | 35004 ft | 490 kts | 71° |
| 2026-05-04 18:26 | 46.55726 | -47.67574 | 35003 ft | 490 kts | 71° |
| 2026-05-04 18:26 | 46.57856 | -47.58179 | 34994 ft | 489 kts | 72° |
| 2026-05-04 18:27 | 46.59992 | -47.48718 | 34997 ft | 489 kts | 72° |
| 2026-05-04 18:27 | 46.62106 | -47.39312 | 34998 ft | 489 kts | 72° |
| 2026-05-04 18:28 | 46.64198 | -47.29959 | 35002 ft | 489 kts | 72° |
| 2026-05-04 18:28 | 46.66297 | -47.20538 | 34997 ft | 489 kts | 72° |
| 2026-05-04 18:29 | 46.68386 | -47.11115 | 34989 ft | 489 kts | 72° |
| 2026-05-04 18:29 | 46.70468 | -47.01687 | 35000 ft | 489 kts | 72° |
| 2026-05-04 18:30 | 46.73578 | -46.87518 | 35000 ft | 489 kts | 72° |
| 2026-05-04 18:31 | 46.75640 | -46.78073 | 34999 ft | 489 kts | 72° |
| 2026-05-04 18:31 | 46.77693 | -46.68624 | 35001 ft | 489 kts | 72° |
| 2026-05-04 18:32 | 46.79739 | -46.59165 | 35001 ft | 489 kts | 72° |
| 2026-05-04 18:32 | 46.81776 | -46.49704 | 34999 ft | 489 kts | 72° |
| 2026-05-04 18:33 | 46.83808 | -46.40224 | 35002 ft | 489 kts | 72° |
| 2026-05-04 18:33 | 46.85829 | -46.30750 | 35000 ft | 489 kts | 72° |
| 2026-05-04 18:34 | 46.87843 | -46.21266 | 35001 ft | 489 kts | 72° |
| 2026-05-04 18:34 | 46.89848 | -46.11778 | 35003 ft | 489 kts | 73° |
| 2026-05-04 18:35 | 46.91846 | -46.02280 | 35001 ft | 488 kts | 73° |
| 2026-05-04 18:35 | 46.93838 | -45.92771 | 35004 ft | 488 kts | 73° |
| 2026-05-04 18:36 | 46.95819 | -45.83264 | 35003 ft | 488 kts | 73° |
| 2026-05-04 18:36 | 46.97792 | -45.73755 | 35004 ft | 488 kts | 73° |
| 2026-05-04 18:37 | 46.99758 | -45.64232 | 35000 ft | 488 kts | 73° |
| 2026-05-04 18:37 | 47.01700 | -45.54778 | 34999 ft | 488 kts | 73° |
| 2026-05-04 18:38 | 47.03650 | -45.45244 | 35001 ft | 488 kts | 73° |
| 2026-05-04 18:38 | 47.05591 | -45.35706 | 34995 ft | 488 kts | 73° |
| 2026-05-04 18:39 | 47.07524 | -45.26163 | 35002 ft | 488 kts | 73° |
| 2026-05-04 18:39 | 47.09448 | -45.16621 | 35000 ft | 488 kts | 73° |
| 2026-05-04 18:40 | 47.11365 | -45.07062 | 34995 ft | 488 kts | 73° |
| 2026-05-04 18:40 | 47.13272 | -44.97508 | 35001 ft | 488 kts | 73° |
| 2026-05-04 18:41 | 47.15173 | -44.87939 | 35000 ft | 488 kts | 73° |
| 2026-05-04 18:41 | 47.17064 | -44.78371 | 35002 ft | 488 kts | 73° |
| 2026-05-04 18:42 | 47.18948 | -44.68793 | 34996 ft | 488 kts | 74° |
| 2026-05-04 18:42 | 47.20824 | -44.59211 | 34999 ft | 488 kts | 74° |
| 2026-05-04 18:43 | 47.22691 | -44.49625 | 35000 ft | 488 kts | 74° |
| 2026-05-04 18:43 | 47.24546 | -44.40048 | 34999 ft | 487 kts | 74° |
| 2026-05-04 18:44 | 47.26396 | -44.30453 | 35004 ft | 487 kts | 74° |
| 2026-05-04 18:44 | 47.28239 | -44.20846 | 35004 ft | 487 kts | 74° |
| 2026-05-04 18:45 | 47.30073 | -44.11240 | 35001 ft | 487 kts | 74° |
| 2026-05-04 18:45 | 47.31900 | -44.01618 | 35002 ft | 487 kts | 74° |
| 2026-05-04 18:46 | 47.33706 | -43.92063 | 34999 ft | 487 kts | 74° |
| 2026-05-04 18:46 | 47.35515 | -43.82439 | 34999 ft | 487 kts | 74° |
| 2026-05-04 18:47 | 47.37316 | -43.72806 | 35001 ft | 487 kts | 75° |
| 2026-05-04 18:47 | 47.39110 | -43.63167 | 34999 ft | 487 kts | 75° |
| 2026-05-04 18:48 | 47.40890 | -43.53549 | 35000 ft | 487 kts | 75° |
| 2026-05-04 18:48 | 47.42667 | -43.43899 | 35000 ft | 487 kts | 75° |
| 2026-05-04 18:49 | 47.44434 | -43.34250 | 34999 ft | 487 kts | 75° |
| 2026-05-04 18:49 | 47.46195 | -43.24582 | 35003 ft | 487 kts | 75° |
| 2026-05-04 18:50 | 47.47946 | -43.14922 | 35004 ft | 487 kts | 75° |
| 2026-05-04 18:50 | 47.49689 | -43.05255 | 34990 ft | 487 kts | 75° |
| 2026-05-04 18:51 | 47.51424 | -42.95577 | 35000 ft | 487 kts | 75° |
| 2026-05-04 18:51 | 47.53150 | -42.85899 | 35004 ft | 487 kts | 75° |
| 2026-05-04 18:52 | 47.54868 | -42.76218 | 35000 ft | 486 kts | 75° |
| 2026-05-04 18:52 | 47.56578 | -42.66525 | 35004 ft | 486 kts | 75° |
| 2026-05-04 18:53 | 47.58279 | -42.56832 | 35000 ft | 486 kts | 75° |
| 2026-05-04 18:53 | 47.59972 | -42.47130 | 35000 ft | 486 kts | 75° |
| 2026-05-04 18:54 | 47.61657 | -42.37420 | 35000 ft | 486 kts | 75° |
| 2026-05-04 18:54 | 47.63322 | -42.27778 | 34997 ft | 486 kts | 76° |
| 2026-05-04 18:55 | 47.64990 | -42.18062 | 35001 ft | 486 kts | 76° |
| 2026-05-04 18:55 | 47.67486 | -42.03420 | 34997 ft | 486 kts | 76° |
| 2026-05-04 18:56 | 47.69122 | -41.93753 | 34998 ft | 486 kts | 76° |
| 2026-05-04 18:56 | 47.70760 | -41.84022 | 35001 ft | 486 kts | 76° |
| 2026-05-04 18:57 | 47.72390 | -41.74286 | 34997 ft | 486 kts | 76° |
| 2026-05-04 18:57 | 47.74012 | -41.64540 | 35002 ft | 486 kts | 76° |
| 2026-05-04 18:58 | 47.75626 | -41.54789 | 35001 ft | 486 kts | 76° |
| 2026-05-04 18:58 | 47.77229 | -41.45045 | 34994 ft | 486 kts | 76° |
| 2026-05-04 18:59 | 47.78826 | -41.35283 | 34995 ft | 486 kts | 76° |
| 2026-05-04 18:59 | 47.80414 | -41.25521 | 35002 ft | 486 kts | 76° |
| 2026-05-04 19:00 | 47.81993 | -41.15754 | 34995 ft | 486 kts | 76° |
| 2026-05-04 19:00 | 47.83563 | -41.05987 | 34994 ft | 485 kts | 76° |
| 2026-05-04 19:01 | 47.85126 | -40.96205 | 35003 ft | 485 kts | 76° |
| 2026-05-04 19:01 | 47.86680 | -40.86425 | 35000 ft | 485 kts | 77° |
| 2026-05-04 19:02 | 47.88225 | -40.76640 | 35004 ft | 485 kts | 77° |
| 2026-05-04 19:02 | 47.89762 | -40.66848 | 35004 ft | 485 kts | 77° |
| 2026-05-04 19:03 | 47.91289 | -40.57059 | 35004 ft | 485 kts | 77° |
| 2026-05-04 19:03 | 47.92810 | -40.47257 | 34998 ft | 485 kts | 77° |
| 2026-05-04 19:04 | 47.94321 | -40.37449 | 34996 ft | 485 kts | 77° |
| 2026-05-04 19:04 | 47.95571 | -40.29299 | 34996 ft | 485 kts | 77° |
| 2026-05-04 19:05 | 47.97066 | -40.19490 | 35004 ft | 485 kts | 77° |
| 2026-05-04 19:05 | 47.98553 | -40.09675 | 34997 ft | 485 kts | 77° |
| 2026-05-04 19:06 | 48.00147 | -39.99895 | 35003 ft | 485 kts | 71° |
| 2026-05-04 19:06 | 48.02404 | -39.90411 | 35003 ft | 485 kts | 70° |
| 2026-05-04 19:07 | 48.04772 | -39.80975 | 34996 ft | 485 kts | 69° |
| 2026-05-04 19:07 | 48.07146 | -39.71553 | 34999 ft | 485 kts | 69° |
| 2026-05-04 19:08 | 48.09507 | -39.62109 | 35001 ft | 485 kts | 69° |
| 2026-05-04 19:08 | 48.11852 | -39.52660 | 35002 ft | 484 kts | 70° |
| 2026-05-04 19:09 | 48.14187 | -39.43200 | 34999 ft | 484 kts | 70° |
| 2026-05-04 19:09 | 48.16500 | -39.33792 | 35001 ft | 484 kts | 70° |
| 2026-05-04 19:10 | 48.18442 | -39.25861 | 34997 ft | 484 kts | 70° |
| 2026-05-04 19:10 | 48.21131 | -39.14836 | 34996 ft | 484 kts | 70° |
| 2026-05-04 19:11 | 48.23434 | -39.05353 | 34996 ft | 484 kts | 70° |
| 2026-05-04 19:11 | 48.25730 | -38.95851 | 34999 ft | 484 kts | 70° |
| 2026-05-04 19:12 | 48.29159 | -38.81593 | 34999 ft | 484 kts | 70° |
| 2026-05-04 19:13 | 48.31434 | -38.72078 | 35003 ft | 484 kts | 70° |
| 2026-05-04 19:13 | 48.33709 | -38.62534 | 34800 ft | 486 kts | 70° |
| 2026-05-04 19:14 | 48.36001 | -38.52867 | 35197 ft | 491 kts | 70° |
| 2026-05-04 19:14 | 48.37142 | -38.48034 | 35557 ft | 490 kts | 70° |
| 2026-05-04 19:14 | 48.38279 | -38.43206 | 35879 ft | 489 kts | 70° |
| 2026-05-04 19:14 | 48.39413 | -38.38383 | 36173 ft | 489 kts | 70° |
| 2026-05-04 19:15 | 48.40543 | -38.33563 | 36455 ft | 489 kts | 70° |
| 2026-05-04 19:15 | 48.41674 | -38.28737 | 36724 ft | 489 kts | 70° |
| 2026-05-04 19:15 | 48.42799 | -38.23921 | 36985 ft | 489 kts | 70° |
| 2026-05-04 19:15 | 48.43927 | -38.19081 | 37224 ft | 489 kts | 70° |
| 2026-05-04 19:16 | 48.45050 | -38.14254 | 37479 ft | 489 kts | 70° |
| 2026-05-04 19:16 | 48.46173 | -38.09414 | 37708 ft | 489 kts | 71° |
| 2026-05-04 19:16 | 48.47293 | -38.04580 | 37933 ft | 489 kts | 71° |
| 2026-05-04 19:16 | 48.48410 | -37.99745 | 38159 ft | 489 kts | 71° |
| 2026-05-04 19:17 | 48.49525 | -37.94905 | 38367 ft | 489 kts | 71° |
| 2026-05-04 19:17 | 48.50625 | -37.90123 | 38571 ft | 489 kts | 71° |
| 2026-05-04 19:17 | 48.51753 | -37.85209 | 38787 ft | 489 kts | 71° |
| 2026-05-04 19:17 | 48.52862 | -37.80366 | 38951 ft | 489 kts | 71° |
| 2026-05-04 19:18 | 48.53960 | -37.75558 | 38995 ft | 493 kts | 71° |
| 2026-05-04 19:18 | 48.56216 | -37.65650 | 39003 ft | 499 kts | 71° |
| 2026-05-04 19:19 | 48.58457 | -37.55763 | 38998 ft | 499 kts | 71° |
| 2026-05-04 19:19 | 48.60672 | -37.45940 | 38999 ft | 491 kts | 71° |
| 2026-05-04 19:20 | 48.62867 | -37.36175 | 38995 ft | 483 kts | 71° |
| 2026-05-04 19:20 | 48.65017 | -37.26558 | 38997 ft | 489 kts | 71° |
| 2026-05-04 19:21 | 48.67186 | -37.16797 | 38997 ft | 490 kts | 71° |
| 2026-05-04 19:21 | 48.69346 | -37.07031 | 38997 ft | 490 kts | 71° |
| 2026-05-04 19:22 | 48.71502 | -36.97248 | 39001 ft | 490 kts | 71° |
| 2026-05-04 19:22 | 48.73650 | -36.87454 | 39001 ft | 490 kts | 71° |
| 2026-05-04 19:23 | 48.75787 | -36.77664 | 38998 ft | 490 kts | 71° |
| 2026-05-04 19:23 | 48.77918 | -36.67855 | 38999 ft | 490 kts | 72° |
| 2026-05-04 19:24 | 48.80040 | -36.58044 | 39002 ft | 490 kts | 72° |
| 2026-05-04 19:24 | 48.82155 | -36.48214 | 39000 ft | 490 kts | 72° |
| 2026-05-04 19:25 | 48.84259 | -36.38391 | 39001 ft | 490 kts | 72° |
| 2026-05-04 19:25 | 48.86003 | -36.30212 | 38997 ft | 490 kts | 72° |
| 2026-05-04 19:26 | 48.87600 | -36.22694 | 39001 ft | 490 kts | 72° |
| 2026-05-04 19:27 | 48.89681 | -36.12855 | 39004 ft | 490 kts | 72° |
| 2026-05-04 19:27 | 48.91757 | -36.02989 | 38998 ft | 490 kts | 72° |
| 2026-05-04 19:28 | 48.93826 | -35.93113 | 38996 ft | 490 kts | 72° |
| 2026-05-04 19:28 | 48.95878 | -35.83266 | 38996 ft | 490 kts | 72° |
| 2026-05-04 19:29 | 48.97926 | -35.73392 | 39004 ft | 490 kts | 72° |
| 2026-05-04 19:29 | 48.99964 | -35.63514 | 39001 ft | 490 kts | 72° |
| 2026-05-04 19:30 | 49.01992 | -35.53620 | 38997 ft | 489 kts | 75° |
| 2026-05-04 19:30 | 49.03923 | -35.43666 | 39004 ft | 490 kts | 75° |
| 2026-05-04 19:31 | 49.05869 | -35.33713 | 39000 ft | 490 kts | 75° |
| 2026-05-04 19:31 | 49.07843 | -35.23857 | 38996 ft | 490 kts | 74° |
| 2026-05-04 19:32 | 49.09184 | -35.17201 | 39005 ft | 490 kts | 74° |
| 2026-05-04 19:32 | 49.10825 | -35.09045 | 39005 ft | 490 kts | 74° |
| 2026-05-04 19:33 | 49.12815 | -34.99095 | 39004 ft | 490 kts | 75° |
| 2026-05-04 19:33 | 49.14795 | -34.89138 | 39000 ft | 490 kts | 75° |
| 2026-05-04 19:34 | 49.16911 | -34.79267 | 38996 ft | 490 kts | 72° |
| 2026-05-04 19:34 | 49.18919 | -34.69327 | 39000 ft | 490 kts | 73° |
| 2026-05-04 19:35 | 49.19689 | -34.65401 | 38999 ft | 490 kts | 73° |
| 2026-05-04 19:39 | 49.20395 | -34.61802 | 38997 ft | 489 kts | 71° |
| 2026-05-04 19:39 | 49.22426 | -34.51853 | 39006 ft | 490 kts | 71° |
| 2026-05-04 19:40 | 49.24425 | -34.41889 | 38996 ft | 490 kts | 71° |
| 2026-05-04 19:40 | 49.26394 | -34.31904 | 38997 ft | 490 kts | 69° |
| 2026-05-04 19:41 | 49.28512 | -34.22116 | 38999 ft | 490 kts | 66° |
| 2026-05-04 19:41 | 49.30625 | -34.12159 | 39000 ft | 492 kts | 68° |
| 2026-05-04 19:42 | 49.32600 | -34.02102 | 38999 ft | 492 kts | 69° |
| 2026-05-04 19:42 | 49.34296 | -33.93118 | 38997 ft | 492 kts | 69° |
| 2026-05-04 19:43 | 49.36038 | -33.83797 | 39001 ft | 491 kts | 69° |
| 2026-05-04 19:43 | 49.37779 | -33.74458 | 38997 ft | 491 kts | 69° |
| 2026-05-04 19:44 | 49.39476 | -33.65330 | 39002 ft | 491 kts | 69° |
| 2026-05-04 19:44 | 49.41119 | -33.56463 | 39003 ft | 491 kts | 69° |
| 2026-05-04 19:45 | 49.42981 | -33.46361 | 38996 ft | 491 kts | 69° |
| 2026-05-04 19:45 | 49.44832 | -33.36256 | 39000 ft | 491 kts | 69° |
| 2026-05-04 19:46 | 49.46675 | -33.26140 | 38999 ft | 491 kts | 69° |
| 2026-05-04 19:46 | 49.48510 | -33.16011 | 39000 ft | 491 kts | 69° |
| 2026-05-04 19:47 | 49.50335 | -33.05881 | 38997 ft | 491 kts | 70° |
| 2026-05-04 19:47 | 49.52151 | -32.95745 | 39000 ft | 491 kts | 70° |
| 2026-05-04 19:48 | 49.53958 | -32.85601 | 39006 ft | 491 kts | 70° |
| 2026-05-04 19:48 | 49.55757 | -32.75448 | 39006 ft | 491 kts | 70° |
| 2026-05-04 19:49 | 49.57547 | -32.65289 | 39003 ft | 491 kts | 70° |
| 2026-05-04 19:49 | 49.59328 | -32.55119 | 39001 ft | 491 kts | 70° |
| 2026-05-04 19:50 | 49.61101 | -32.44943 | 39002 ft | 491 kts | 70° |
| 2026-05-04 19:50 | 49.62864 | -32.34760 | 38999 ft | 491 kts | 70° |
| 2026-05-04 19:51 | 49.64618 | -32.24575 | 39000 ft | 491 kts | 70° |
| 2026-05-04 19:51 | 49.66069 | -32.16100 | 39008 ft | 491 kts | 70° |
| 2026-05-04 19:52 | 49.67808 | -32.05897 | 39003 ft | 491 kts | 70° |
| 2026-05-04 19:52 | 49.69538 | -31.95683 | 39004 ft | 491 kts | 70° |
| 2026-05-04 19:53 | 49.71254 | -31.85490 | 39001 ft | 491 kts | 70° |
| 2026-05-04 19:53 | 49.72973 | -31.75246 | 38999 ft | 491 kts | 70° |
| 2026-05-04 19:54 | 49.74677 | -31.65016 | 39001 ft | 491 kts | 71° |
| 2026-05-04 19:54 | 49.76371 | -31.54775 | 38998 ft | 491 kts | 71° |
| 2026-05-04 19:55 | 49.78043 | -31.44599 | 38998 ft | 491 kts | 71° |
| 2026-05-04 19:55 | 49.79719 | -31.34346 | 39000 ft | 491 kts | 71° |
| 2026-05-04 19:56 | 49.81385 | -31.24083 | 39007 ft | 491 kts | 71° |
| 2026-05-04 19:56 | 49.83042 | -31.13814 | 39007 ft | 491 kts | 71° |
| 2026-05-04 19:57 | 49.84690 | -31.03542 | 38996 ft | 491 kts | 71° |
| 2026-05-04 19:57 | 49.86328 | -30.93270 | 38999 ft | 492 kts | 71° |
| 2026-05-04 19:58 | 49.87964 | -30.82966 | 38996 ft | 492 kts | 71° |
| 2026-05-04 19:58 | 49.89586 | -30.72660 | 38997 ft | 492 kts | 71° |
| 2026-05-04 19:59 | 49.91196 | -30.62358 | 38998 ft | 491 kts | 71° |
| 2026-05-04 19:59 | 49.92796 | -30.52061 | 39007 ft | 491 kts | 71° |
| 2026-05-04 20:00 | 49.94391 | -30.41739 | 39001 ft | 491 kts | 71° |
| 2026-05-04 20:00 | 49.95977 | -30.31410 | 39000 ft | 491 kts | 72° |
| 2026-05-04 20:01 | 49.97553 | -30.21077 | 38995 ft | 491 kts | 72° |
| 2026-05-04 20:01 | 49.99117 | -30.10746 | 38998 ft | 491 kts | 72° |
| 2026-05-04 20:02 | 50.00675 | -30.00397 | 39000 ft | 491 kts | 72° |
| 2026-05-04 20:02 | 50.02206 | -29.90048 | 38999 ft | 492 kts | 72° |
| 2026-05-04 20:03 | 50.03693 | -29.79658 | 39000 ft | 492 kts | 72° |
| 2026-05-04 20:03 | 50.05168 | -29.69279 | 38996 ft | 491 kts | 72° |
| 2026-05-04 20:04 | 50.06643 | -29.58890 | 39006 ft | 491 kts | 72° |
| 2026-05-04 20:04 | 50.08110 | -29.48509 | 38998 ft | 491 kts | 72° |
| 2026-05-04 20:05 | 50.09571 | -29.38107 | 39001 ft | 491 kts | 73° |
| 2026-05-04 20:05 | 50.11012 | -29.27771 | 38999 ft | 491 kts | 73° |
| 2026-05-04 20:06 | 50.12461 | -29.17299 | 38999 ft | 491 kts | 73° |
| 2026-05-04 20:06 | 50.13884 | -29.06948 | 39003 ft | 491 kts | 73° |
| 2026-05-04 20:07 | 50.15305 | -28.96531 | 39003 ft | 491 kts | 73° |
| 2026-05-04 20:07 | 50.16719 | -28.86101 | 38998 ft | 491 kts | 73° |
| 2026-05-04 20:08 | 50.18121 | -28.75674 | 38998 ft | 491 kts | 73° |
| 2026-05-04 20:08 | 50.19517 | -28.65225 | 38999 ft | 491 kts | 73° |
| 2026-05-04 20:09 | 50.20901 | -28.54782 | 39002 ft | 491 kts | 73° |
| 2026-05-04 20:09 | 50.22276 | -28.44334 | 39008 ft | 491 kts | 73° |
| 2026-05-04 20:10 | 50.23643 | -28.33874 | 39003 ft | 491 kts | 73° |
| 2026-05-04 20:10 | 50.24999 | -28.23407 | 38998 ft | 491 kts | 73° |
| 2026-05-04 20:11 | 50.26348 | -28.12931 | 38998 ft | 491 kts | 73° |
| 2026-05-04 20:11 | 50.27685 | -28.02460 | 39002 ft | 491 kts | 74° |
| 2026-05-04 20:12 | 50.29014 | -27.91971 | 38999 ft | 491 kts | 74° |
| 2026-05-04 20:12 | 50.30334 | -27.81485 | 39000 ft | 491 kts | 74° |
| 2026-05-04 20:13 | 50.31643 | -27.70993 | 38997 ft | 491 kts | 74° |
| 2026-05-04 20:13 | 50.32942 | -27.60496 | 39003 ft | 491 kts | 74° |
| 2026-05-04 20:14 | 50.34233 | -27.49993 | 38998 ft | 491 kts | 74° |
| 2026-05-04 20:14 | 50.35514 | -27.39478 | 38998 ft | 491 kts | 74° |
| 2026-05-04 20:15 | 50.36786 | -27.28960 | 38999 ft | 491 kts | 74° |
| 2026-05-04 20:15 | 50.38048 | -27.18444 | 38996 ft | 491 kts | 74° |
| 2026-05-04 20:16 | 50.39292 | -27.07984 | 39008 ft | 491 kts | 75° |
| 2026-05-04 20:16 | 50.40544 | -26.97379 | 39008 ft | 491 kts | 75° |
| 2026-05-04 20:17 | 50.41769 | -26.86913 | 38997 ft | 491 kts | 75° |
| 2026-05-04 20:17 | 50.42993 | -26.76363 | 39003 ft | 491 kts | 75° |
| 2026-05-04 20:18 | 50.44207 | -26.65819 | 38999 ft | 491 kts | 75° |
| 2026-05-04 20:18 | 50.45413 | -26.55258 | 39002 ft | 491 kts | 75° |
| 2026-05-04 20:19 | 50.46607 | -26.44706 | 39002 ft | 491 kts | 75° |
| 2026-05-04 20:19 | 50.47794 | -26.34134 | 38997 ft | 491 kts | 75° |
| 2026-05-04 20:20 | 50.48970 | -26.23564 | 38995 ft | 491 kts | 75° |
| 2026-05-04 20:20 | 50.50137 | -26.12989 | 39002 ft | 491 kts | 75° |
| 2026-05-04 20:21 | 50.51294 | -26.02409 | 39000 ft | 491 kts | 75° |
| 2026-05-04 20:21 | 50.53012 | -25.86522 | 39010 ft | 491 kts | 75° |
| 2026-05-04 20:22 | 50.54145 | -25.75930 | 38998 ft | 491 kts | 76° |
| 2026-05-04 20:22 | 50.55270 | -25.65331 | 39005 ft | 491 kts | 76° |
| 2026-05-04 20:23 | 50.56383 | -25.54733 | 38998 ft | 491 kts | 76° |
| 2026-05-04 20:23 | 50.57488 | -25.44117 | 39010 ft | 491 kts | 76° |
| 2026-05-04 20:24 | 50.58583 | -25.33506 | 39001 ft | 491 kts | 76° |
| 2026-05-04 20:24 | 50.59668 | -25.22885 | 38995 ft | 491 kts | 76° |
| 2026-05-04 20:25 | 50.60743 | -25.12263 | 39002 ft | 491 kts | 76° |
| 2026-05-04 20:25 | 50.61809 | -25.01634 | 39009 ft | 491 kts | 76° |
| 2026-05-04 20:26 | 50.62865 | -24.91002 | 39001 ft | 491 kts | 76° |
| 2026-05-04 20:26 | 50.63912 | -24.80358 | 39002 ft | 491 kts | 76° |
| 2026-05-04 20:27 | 50.64948 | -24.69718 | 39006 ft | 491 kts | 76° |
| 2026-05-04 20:27 | 50.65968 | -24.59143 | 39005 ft | 491 kts | 76° |
| 2026-05-04 20:28 | 50.66985 | -24.48493 | 38997 ft | 491 kts | 76° |
| 2026-05-04 20:28 | 50.68000 | -24.37762 | 38997 ft | 491 kts | 77° |
| 2026-05-04 20:29 | 50.68991 | -24.27172 | 38998 ft | 491 kts | 77° |
| 2026-05-04 20:29 | 50.69978 | -24.16509 | 38998 ft | 491 kts | 77° |
| 2026-05-04 20:30 | 50.70957 | -24.05839 | 38998 ft | 491 kts | 77° |
| 2026-05-04 20:30 | 50.71926 | -23.95160 | 38997 ft | 491 kts | 77° |
| 2026-05-04 20:31 | 50.72885 | -23.84485 | 39006 ft | 491 kts | 77° |
| 2026-05-04 20:31 | 50.73835 | -23.73796 | 39000 ft | 491 kts | 77° |
| 2026-05-04 20:32 | 50.74774 | -23.63110 | 38996 ft | 491 kts | 77° |
| 2026-05-04 20:32 | 50.75704 | -23.52417 | 38994 ft | 491 kts | 77° |
| 2026-05-04 20:33 | 50.76624 | -23.41726 | 39009 ft | 491 kts | 77° |
| 2026-05-04 20:33 | 50.77534 | -23.31027 | 38994 ft | 491 kts | 77° |
| 2026-05-04 20:34 | 50.78435 | -23.20317 | 39003 ft | 491 kts | 77° |
| 2026-05-04 20:34 | 50.79325 | -23.09613 | 38996 ft | 491 kts | 77° |
| 2026-05-04 20:35 | 50.80206 | -22.98893 | 38999 ft | 491 kts | 78° |
| 2026-05-04 20:35 | 50.81077 | -22.88180 | 39000 ft | 491 kts | 78° |
| 2026-05-04 20:36 | 50.81938 | -22.77461 | 39002 ft | 491 kts | 78° |
| 2026-05-04 20:36 | 50.82790 | -22.66734 | 38998 ft | 491 kts | 78° |
| 2026-05-04 20:37 | 50.83631 | -22.56007 | 38997 ft | 491 kts | 78° |
| 2026-05-04 20:37 | 50.84462 | -22.45278 | 38999 ft | 491 kts | 78° |
| 2026-05-04 20:38 | 50.85279 | -22.34608 | 38999 ft | 491 kts | 78° |
| 2026-05-04 20:38 | 50.86090 | -22.23868 | 38999 ft | 491 kts | 78° |
| 2026-05-04 20:39 | 50.86893 | -22.13123 | 38998 ft | 491 kts | 78° |
| 2026-05-04 20:39 | 50.87556 | -22.04126 | 38999 ft | 491 kts | 78° |
| 2026-05-04 20:40 | 50.88341 | -21.93371 | 39009 ft | 491 kts | 78° |
| 2026-05-04 20:40 | 50.89115 | -21.82615 | 38997 ft | 491 kts | 78° |
| 2026-05-04 20:41 | 50.89879 | -21.71864 | 38996 ft | 491 kts | 79° |
| 2026-05-04 20:41 | 50.90633 | -21.61102 | 38996 ft | 491 kts | 79° |
| 2026-05-04 20:42 | 50.91378 | -21.50336 | 39000 ft | 491 kts | 79° |
| 2026-05-04 20:42 | 50.92108 | -21.39640 | 39004 ft | 491 kts | 79° |
| 2026-05-04 20:43 | 50.92833 | -21.28875 | 39007 ft | 491 kts | 79° |
| 2026-05-04 20:43 | 50.93548 | -21.18097 | 39006 ft | 491 kts | 79° |
| 2026-05-04 20:44 | 50.94252 | -21.07318 | 38998 ft | 491 kts | 79° |
| 2026-05-04 20:44 | 50.94947 | -20.96542 | 38994 ft | 491 kts | 79° |
| 2026-05-04 20:45 | 50.95632 | -20.85756 | 38999 ft | 491 kts | 79° |
| 2026-05-04 20:45 | 50.96308 | -20.74962 | 38997 ft | 491 kts | 79° |
| 2026-05-04 20:46 | 50.96973 | -20.64173 | 38999 ft | 491 kts | 79° |
| 2026-05-04 20:46 | 50.97628 | -20.53383 | 39001 ft | 491 kts | 79° |
| 2026-05-04 20:47 | 50.98273 | -20.42586 | 38998 ft | 491 kts | 79° |
| 2026-05-04 20:47 | 50.98908 | -20.31789 | 39009 ft | 491 kts | 80° |
| 2026-05-04 20:48 | 50.99534 | -20.20980 | 38999 ft | 491 kts | 80° |
| 2026-05-04 20:48 | 51.00150 | -20.10174 | 38996 ft | 491 kts | 80° |
| 2026-05-04 20:49 | 51.00755 | -19.99372 | 39005 ft | 491 kts | 80° |
| 2026-05-04 20:49 | 51.01120 | -19.88522 | 39001 ft | 493 kts | 84° |
| 2026-05-04 20:50 | 51.01249 | -19.77649 | 39003 ft | 492 kts | 84° |
| 2026-05-04 20:50 | 51.01391 | -19.66796 | 38999 ft | 491 kts | 84° |
| 2026-05-04 20:51 | 51.01569 | -19.55953 | 39002 ft | 491 kts | 83° |
| 2026-05-04 20:51 | 51.01757 | -19.45106 | 38998 ft | 491 kts | 83° |
| 2026-05-04 20:52 | 51.01935 | -19.34326 | 38997 ft | 491 kts | 84° |
| 2026-05-04 20:52 | 51.02102 | -19.23479 | 38998 ft | 491 kts | 84° |
| 2026-05-04 20:53 | 51.02258 | -19.12623 | 38998 ft | 491 kts | 84° |
| 2026-05-04 20:53 | 51.02404 | -19.01775 | 38998 ft | 491 kts | 84° |
| 2026-05-04 20:54 | 51.02539 | -18.90918 | 39008 ft | 491 kts | 84° |
| 2026-05-04 20:54 | 51.02665 | -18.80064 | 39008 ft | 491 kts | 84° |
| 2026-05-04 20:55 | 51.02780 | -18.69211 | 38998 ft | 491 kts | 84° |
| 2026-05-04 20:55 | 51.02886 | -18.58358 | 38996 ft | 491 kts | 84° |
| 2026-05-04 20:56 | 51.02981 | -18.47500 | 38997 ft | 491 kts | 84° |
| 2026-05-04 20:56 | 51.03066 | -18.36648 | 38997 ft | 491 kts | 84° |
| 2026-05-04 20:57 | 51.03142 | -18.25786 | 39008 ft | 491 kts | 84° |
| 2026-05-04 20:57 | 51.03207 | -18.14933 | 38998 ft | 491 kts | 84° |
| 2026-05-04 20:58 | 51.03262 | -18.04073 | 39006 ft | 491 kts | 85° |
| 2026-05-04 20:58 | 51.03307 | -17.93215 | 38999 ft | 491 kts | 85° |
| 2026-05-04 20:59 | 51.03343 | -17.82363 | 38996 ft | 491 kts | 85° |
| 2026-05-04 20:59 | 51.03368 | -17.71498 | 38995 ft | 491 kts | 85° |
| 2026-05-04 21:00 | 51.03383 | -17.60642 | 39000 ft | 491 kts | 85° |
| 2026-05-04 21:00 | 51.03388 | -17.49790 | 39004 ft | 491 kts | 85° |
| 2026-05-04 21:01 | 51.03383 | -17.38928 | 38998 ft | 491 kts | 85° |
| 2026-05-04 21:01 | 51.03368 | -17.28071 | 38998 ft | 492 kts | 85° |
| 2026-05-04 21:02 | 51.03342 | -17.17287 | 38998 ft | 491 kts | 85° |
| 2026-05-04 21:02 | 51.03307 | -17.06433 | 38997 ft | 491 kts | 85° |
| 2026-05-04 21:03 | 51.03262 | -16.95575 | 39010 ft | 491 kts | 85° |
| 2026-05-04 21:03 | 51.03207 | -16.84750 | 38999 ft | 491 kts | 85° |
| 2026-05-04 21:04 | 51.03143 | -16.73885 | 39009 ft | 491 kts | 85° |
| 2026-05-04 21:04 | 51.03067 | -16.63034 | 38999 ft | 491 kts | 86° |
| 2026-05-04 21:05 | 51.02981 | -16.52175 | 38997 ft | 491 kts | 86° |
| 2026-05-04 21:05 | 51.02885 | -16.41317 | 38999 ft | 491 kts | 86° |
| 2026-05-04 21:06 | 51.02779 | -16.30472 | 38999 ft | 491 kts | 86° |
| 2026-05-04 21:06 | 51.02664 | -16.19615 | 39003 ft | 492 kts | 86° |
| 2026-05-04 21:07 | 51.02539 | -16.08770 | 38997 ft | 491 kts | 86° |
| 2026-05-04 21:07 | 51.02403 | -15.97904 | 38998 ft | 491 kts | 86° |
| 2026-05-04 21:08 | 51.02254 | -15.87062 | 38997 ft | 488 kts | 87° |
| 2026-05-04 21:08 | 51.01981 | -15.76471 | 38998 ft | 473 kts | 90° |
| 2026-05-04 21:09 | 51.01632 | -15.66237 | 38999 ft | 461 kts | 92° |
| 2026-05-04 21:09 | 51.01280 | -15.56182 | 39004 ft | 452 kts | 91° |
| 2026-05-04 21:10 | 51.01071 | -15.46030 | 38999 ft | 462 kts | 89° |
| 2026-05-04 21:10 | 51.00942 | -15.35715 | 39003 ft | 472 kts | 89° |
| 2026-05-04 21:11 | 51.00784 | -15.25267 | 38999 ft | 481 kts | 90° |
| 2026-05-04 21:11 | 51.00589 | -15.14552 | 39005 ft | 489 kts | 90° |
| 2026-05-04 21:12 | 51.00372 | -15.03737 | 38997 ft | 490 kts | 90° |
| 2026-05-04 21:12 | 51.00213 | -14.92916 | 38997 ft | 490 kts | 88° |
| 2026-05-04 21:13 | 51.00279 | -14.82109 | 39006 ft | 490 kts | 88° |
| 2026-05-04 21:13 | 51.00360 | -14.71289 | 38997 ft | 490 kts | 88° |
| 2026-05-04 21:14 | 51.00397 | -14.60477 | 38998 ft | 490 kts | 88° |
| 2026-05-04 21:14 | 51.00405 | -14.49595 | 38999 ft | 494 kts | 88° |
| 2026-05-04 21:15 | 51.00398 | -14.38741 | 38999 ft | 491 kts | 88° |
| 2026-05-04 21:15 | 51.00380 | -14.27985 | 39005 ft | 490 kts | 89° |
| 2026-05-04 21:16 | 51.00353 | -14.17173 | 39009 ft | 490 kts | 89° |
| 2026-05-04 21:16 | 51.00318 | -14.06353 | 39003 ft | 490 kts | 89° |
| 2026-05-04 21:17 | 50.99922 | -13.95555 | 39002 ft | 491 kts | 95° |
| 2026-05-04 21:17 | 50.99118 | -13.84805 | 39001 ft | 490 kts | 96° |
| 2026-05-04 21:18 | 50.98242 | -13.74082 | 38998 ft | 490 kts | 96° |
| 2026-05-04 21:18 | 50.97350 | -13.63287 | 39007 ft | 497 kts | 96° |
| 2026-05-04 21:19 | 50.96450 | -13.52357 | 39002 ft | 502 kts | 96° |
| 2026-05-04 21:19 | 50.95537 | -13.41346 | 39005 ft | 504 kts | 96° |
| 2026-05-04 21:20 | 50.94610 | -13.30311 | 39000 ft | 505 kts | 96° |
| 2026-05-04 21:20 | 50.93670 | -13.19274 | 39001 ft | 506 kts | 96° |
| 2026-05-04 21:21 | 50.92716 | -13.08225 | 39002 ft | 506 kts | 96° |
| 2026-05-04 21:21 | 50.91753 | -12.97186 | 38998 ft | 506 kts | 96° |
| 2026-05-04 21:22 | 50.90779 | -12.86148 | 39000 ft | 506 kts | 96° |
| 2026-05-04 21:22 | 50.89794 | -12.75113 | 39001 ft | 506 kts | 96° |
| 2026-05-04 21:23 | 50.88798 | -12.64077 | 39001 ft | 506 kts | 96° |
| 2026-05-04 21:23 | 50.87792 | -12.53052 | 39004 ft | 506 kts | 97° |
| 2026-05-04 21:24 | 50.86777 | -12.42035 | 39000 ft | 506 kts | 97° |
| 2026-05-04 21:24 | 50.85750 | -12.31013 | 39001 ft | 506 kts | 97° |
| 2026-05-04 21:25 | 50.84720 | -12.20074 | 38997 ft | 506 kts | 97° |
| 2026-05-04 21:25 | 50.83673 | -12.09072 | 38996 ft | 506 kts | 97° |
| 2026-05-04 21:26 | 50.82616 | -11.98070 | 38998 ft | 506 kts | 97° |
| 2026-05-04 21:26 | 50.81548 | -11.87074 | 38994 ft | 506 kts | 97° |
| 2026-05-04 21:27 | 50.80470 | -11.76081 | 38998 ft | 506 kts | 97° |
| 2026-05-04 21:27 | 50.79381 | -11.65095 | 38998 ft | 506 kts | 97° |
| 2026-05-04 21:28 | 50.78468 | -11.55962 | 39000 ft | 506 kts | 97° |
| 2026-05-04 21:28 | 50.77361 | -11.44988 | 38995 ft | 506 kts | 97° |
| 2026-05-04 21:29 | 50.76243 | -11.34012 | 38998 ft | 506 kts | 97° |
| 2026-05-04 21:29 | 50.75116 | -11.23047 | 39003 ft | 506 kts | 97° |
| 2026-05-04 21:30 | 50.73977 | -11.12081 | 38997 ft | 506 kts | 98° |
| 2026-05-04 21:30 | 50.72642 | -10.99354 | 38996 ft | 506 kts | 98° |
| 2026-05-04 21:31 | 50.71087 | -10.84704 | 38997 ft | 506 kts | 98° |
| 2026-05-04 21:32 | 50.69912 | -10.73755 | 39001 ft | 506 kts | 98° |
| 2026-05-04 21:32 | 50.68728 | -10.62820 | 39006 ft | 506 kts | 98° |
| 2026-05-04 21:33 | 50.67541 | -10.51958 | 38996 ft | 506 kts | 98° |
| 2026-05-04 21:33 | 50.66336 | -10.41030 | 38998 ft | 506 kts | 98° |
| 2026-05-04 21:34 | 50.65121 | -10.30112 | 38999 ft | 506 kts | 98° |
| 2026-05-04 21:34 | 50.63896 | -10.19191 | 39002 ft | 506 kts | 98° |
| 2026-05-04 21:35 | 50.62660 | -10.08277 | 38998 ft | 506 kts | 98° |
| 2026-05-04 21:35 | 50.61415 | -9.97378 | 38996 ft | 506 kts | 98° |
| 2026-05-04 21:36 | 50.60158 | -9.86475 | 38996 ft | 506 kts | 98° |
| 2026-05-04 21:36 | 50.58893 | -9.75585 | 38996 ft | 506 kts | 99° |
| 2026-05-04 21:37 | 50.57616 | -9.64697 | 39000 ft | 506 kts | 99° |
| 2026-05-04 21:37 | 50.56329 | -9.53810 | 38996 ft | 506 kts | 99° |
| 2026-05-04 21:38 | 50.55033 | -9.42933 | 39002 ft | 506 kts | 99° |
| 2026-05-04 21:38 | 50.53726 | -9.32063 | 39009 ft | 506 kts | 99° |
| 2026-05-04 21:39 | 50.52409 | -9.21199 | 38998 ft | 506 kts | 99° |
| 2026-05-04 21:39 | 50.51083 | -9.10348 | 39004 ft | 506 kts | 99° |
| 2026-05-04 21:40 | 50.49746 | -8.99490 | 38998 ft | 506 kts | 99° |
| 2026-05-04 21:40 | 50.48398 | -8.88641 | 39006 ft | 506 kts | 99° |
| 2026-05-04 21:41 | 50.47041 | -8.77804 | 38998 ft | 506 kts | 99° |
| 2026-05-04 21:41 | 50.45674 | -8.66965 | 39003 ft | 506 kts | 99° |
| 2026-05-04 21:42 | 50.44306 | -8.56217 | 38998 ft | 506 kts | 99° |
| 2026-05-04 21:42 | 50.42918 | -8.45386 | 38998 ft | 506 kts | 100° |
| 2026-05-04 21:43 | 50.41521 | -8.34573 | 39002 ft | 506 kts | 100° |
| 2026-05-04 21:43 | 50.40114 | -8.23767 | 38995 ft | 506 kts | 100° |
| 2026-05-04 21:44 | 50.38696 | -8.12963 | 38998 ft | 506 kts | 100° |
| 2026-05-04 21:44 | 50.37268 | -8.02161 | 38996 ft | 506 kts | 100° |
| 2026-05-04 21:45 | 50.35671 | -7.91428 | 39001 ft | 506 kts | 104° |
| 2026-05-04 21:45 | 50.33716 | -7.80853 | 39008 ft | 506 kts | 105° |
| 2026-05-04 21:46 | 50.31738 | -7.70281 | 38996 ft | 506 kts | 104° |
| 2026-05-04 21:46 | 50.29805 | -7.59687 | 39004 ft | 506 kts | 104° |
| 2026-05-04 21:47 | 50.27892 | -7.49097 | 39000 ft | 506 kts | 104° |
| 2026-05-04 21:47 | 50.25975 | -7.38511 | 38995 ft | 506 kts | 104° |
| 2026-05-04 21:48 | 50.24047 | -7.27940 | 38999 ft | 506 kts | 104° |
| 2026-05-04 21:48 | 50.22106 | -7.17370 | 38999 ft | 506 kts | 104° |
| 2026-05-04 21:49 | 50.20157 | -7.06818 | 39000 ft | 506 kts | 104° |
| 2026-05-04 21:49 | 50.18197 | -6.96269 | 38998 ft | 506 kts | 104° |
| 2026-05-04 21:50 | 50.16231 | -6.85749 | 38998 ft | 506 kts | 104° |
| 2026-05-04 21:50 | 50.14252 | -6.75214 | 38995 ft | 506 kts | 105° |
| 2026-05-04 21:51 | 50.12277 | -6.64762 | 39003 ft | 506 kts | 105° |
| 2026-05-04 21:51 | 50.10280 | -6.54251 | 39000 ft | 506 kts | 105° |
| 2026-05-04 21:52 | 50.08273 | -6.43744 | 39003 ft | 506 kts | 105° |
| 2026-05-04 21:52 | 50.06255 | -6.33240 | 38996 ft | 506 kts | 105° |
| 2026-05-04 21:53 | 50.04229 | -6.22755 | 39008 ft | 506 kts | 105° |
| 2026-05-04 21:53 | 50.02194 | -6.12280 | 38999 ft | 506 kts | 105° |
| 2026-05-04 21:54 | 50.00148 | -6.01804 | 38998 ft | 506 kts | 105° |
| 2026-05-04 21:54 | 49.98094 | -5.91346 | 38998 ft | 506 kts | 105° |
| 2026-05-04 21:55 | 49.96031 | -5.80896 | 39000 ft | 506 kts | 105° |
| 2026-05-04 21:55 | 49.93957 | -5.70450 | 38998 ft | 506 kts | 105° |
| 2026-05-04 21:56 | 49.91874 | -5.60014 | 38996 ft | 506 kts | 105° |
| 2026-05-04 21:56 | 49.89782 | -5.49586 | 39000 ft | 506 kts | 105° |
| 2026-05-04 21:57 | 49.87679 | -5.39162 | 38996 ft | 506 kts | 106° |
| 2026-05-04 21:57 | 49.85568 | -5.28754 | 39004 ft | 506 kts | 106° |
| 2026-05-04 21:58 | 49.83449 | -5.18360 | 38998 ft | 506 kts | 106° |
| 2026-05-04 21:58 | 49.81319 | -5.07967 | 38999 ft | 506 kts | 106° |
| 2026-05-04 21:59 | 49.79179 | -4.97583 | 38996 ft | 506 kts | 106° |
| 2026-05-04 21:59 | 49.77032 | -4.87213 | 39008 ft | 506 kts | 106° |
| 2026-05-04 22:00 | 49.74874 | -4.76846 | 38998 ft | 506 kts | 106° |
| 2026-05-04 22:00 | 49.72714 | -4.66523 | 38999 ft | 506 kts | 107° |
| 2026-05-04 22:01 | 49.71173 | -4.55917 | 38992 ft | 506 kts | 98° |
| 2026-05-04 22:01 | 49.70052 | -4.45181 | 38998 ft | 506 kts | 97° |
| 2026-05-04 22:02 | 49.68986 | -4.34436 | 38995 ft | 506 kts | 97° |
| 2026-05-04 22:02 | 49.67904 | -4.23694 | 38998 ft | 506 kts | 97° |
| 2026-05-04 22:03 | 49.66797 | -4.12955 | 38997 ft | 506 kts | 97° |
| 2026-05-04 22:03 | 49.65676 | -4.02229 | 39004 ft | 506 kts | 97° |
| 2026-05-04 22:04 | 49.64730 | -3.91462 | 38999 ft | 506 kts | 94° |
| 2026-05-04 22:04 | 49.64149 | -3.80638 | 39007 ft | 506 kts | 93° |
| 2026-05-04 22:05 | 49.63570 | -3.69816 | 39005 ft | 506 kts | 93° |
| 2026-05-04 22:05 | 49.62922 | -3.59064 | 38999 ft | 497 kts | 94° |
| 2026-05-04 22:06 | 49.62246 | -3.48619 | 38999 ft | 490 kts | 94° |
| 2026-05-04 22:06 | 49.61586 | -3.38587 | 39009 ft | 495 kts | 94° |
| 2026-05-04 22:07 | 49.61095 | -3.31148 | 38999 ft | 491 kts | 94° |
| 2026-05-04 22:07 | 49.60398 | -3.20688 | 39004 ft | 490 kts | 94° |
| 2026-05-04 22:08 | 49.59693 | -3.10236 | 38997 ft | 490 kts | 94° |
| 2026-05-04 22:08 | 49.58976 | -2.99711 | 38999 ft | 496 kts | 94° |
| 2026-05-04 22:09 | 49.58251 | -2.89208 | 38999 ft | 491 kts | 95° |
| 2026-05-04 22:09 | 49.57516 | -2.78766 | 39000 ft | 490 kts | 95° |
| 2026-05-04 22:10 | 49.56773 | -2.68329 | 38999 ft | 490 kts | 95° |
| 2026-05-04 22:10 | 49.56023 | -2.57907 | 38998 ft | 490 kts | 95° |
| 2026-05-04 22:11 | 49.55263 | -2.47476 | 38996 ft | 490 kts | 95° |
| 2026-05-04 22:11 | 49.54494 | -2.37057 | 38995 ft | 490 kts | 95° |
| 2026-05-04 22:12 | 49.53715 | -2.26637 | 38997 ft | 490 kts | 95° |
| 2026-05-04 22:12 | 49.52926 | -2.16220 | 38996 ft | 490 kts | 95° |
| 2026-05-04 22:13 | 49.52129 | -2.05804 | 39003 ft | 490 kts | 95° |
| 2026-05-04 22:13 | 49.51322 | -1.95393 | 38997 ft | 490 kts | 95° |
| 2026-05-04 22:14 | 49.50505 | -1.84979 | 39000 ft | 490 kts | 95° |
| 2026-05-04 22:14 | 49.49819 | -1.76331 | 39009 ft | 490 kts | 95° |
| 2026-05-04 22:15 | 49.48986 | -1.65924 | 39004 ft | 491 kts | 95° |
| 2026-05-04 22:15 | 49.48009 | -1.53821 | 39001 ft | 490 kts | 95° |
| 2026-05-04 22:16 | 49.47152 | -1.43430 | 39001 ft | 490 kts | 96° |
| 2026-05-04 22:16 | 49.46426 | -1.34713 | 39002 ft | 490 kts | 96° |
| 2026-05-04 22:17 | 49.45555 | -1.24327 | 38996 ft | 490 kts | 96° |
| 2026-05-04 22:17 | 49.44681 | -1.14012 | 38996 ft | 490 kts | 96° |
| 2026-05-04 22:18 | 49.43785 | -1.03564 | 38998 ft | 490 kts | 96° |
| 2026-05-04 22:18 | 49.42893 | -0.93262 | 38998 ft | 490 kts | 96° |
| 2026-05-04 22:19 | 49.41985 | -0.82887 | 38994 ft | 490 kts | 96° |
| 2026-05-04 22:19 | 49.41068 | -0.72528 | 39009 ft | 490 kts | 96° |
| 2026-05-04 22:19 | 49.40607 | -0.67356 | 38863 ft | 485 kts | 96° |
| 2026-05-04 22:20 | 49.40150 | -0.62253 | 38195 ft | 483 kts | 96° |
| 2026-05-04 22:20 | 49.39691 | -0.57146 | 37405 ft | 484 kts | 96° |
| 2026-05-04 22:20 | 49.39230 | -0.52026 | 36608 ft | 484 kts | 96° |
| 2026-05-04 22:20 | 49.38771 | -0.46914 | 35815 ft | 484 kts | 96° |
| 2026-05-04 22:21 | 49.38309 | -0.41792 | 35000 ft | 485 kts | 96° |
| 2026-05-04 22:21 | 49.37846 | -0.36660 | 34123 ft | 486 kts | 96° |
| 2026-05-04 22:21 | 49.37379 | -0.31526 | 33221 ft | 487 kts | 96° |
| 2026-05-04 22:21 | 49.36905 | -0.26367 | 32282 ft | 489 kts | 97° |
| 2026-05-04 22:22 | 49.36449 | -0.21187 | 31371 ft | 490 kts | 95° |
| 2026-05-04 22:22 | 49.36085 | -0.15991 | 30587 ft | 488 kts | 94° |
| 2026-05-04 22:22 | 49.35752 | -0.10835 | 29905 ft | 484 kts | 94° |
| 2026-05-04 22:22 | 49.35425 | -0.05721 | 29248 ft | 479 kts | 94° |
| 2026-05-04 22:23 | 49.35100 | -0.00658 | 28605 ft | 475 kts | 94° |
| 2026-05-04 22:23 | 49.34777 | 0.04358 | 27962 ft | 470 kts | 94° |
| 2026-05-04 22:23 | 49.34459 | 0.09262 | 27334 ft | 466 kts | 94° |
| 2026-05-04 22:23 | 49.34140 | 0.14135 | 26851 ft | 448 kts | 94° |
| 2026-05-04 22:24 | 49.33835 | 0.18745 | 26315 ft | 423 kts | 94° |
| 2026-05-04 22:24 | 49.33541 | 0.23120 | 25850 ft | 408 kts | 94° |
| 2026-05-04 22:24 | 49.33247 | 0.27540 | 25552 ft | 423 kts | 94° |
| 2026-05-04 22:24 | 49.32954 | 0.32012 | 24563 ft | 420 kts | 94° |
| 2026-05-04 22:25 | 49.32654 | 0.36487 | 23877 ft | 420 kts | 94° |
| 2026-05-04 22:25 | 49.32359 | 0.40861 | 23532 ft | 404 kts | 94° |
| 2026-05-04 22:25 | 49.32068 | 0.45147 | 23396 ft | 411 kts | 94° |
| 2026-05-04 22:25 | 49.31800 | 0.49587 | 23126 ft | 422 kts | 92° |
| 2026-05-04 22:26 | 49.31693 | 0.54094 | 22239 ft | 421 kts | 90° |
| 2026-05-04 22:26 | 49.31649 | 0.58458 | 21638 ft | 397 kts | 89° |
| 2026-05-04 22:26 | 49.31606 | 0.62560 | 21135 ft | 373 kts | 89° |
| 2026-05-04 22:26 | 49.31560 | 0.66420 | 20631 ft | 354 kts | 89° |
| 2026-05-04 22:27 | 49.31512 | 0.70125 | 19908 ft | 343 kts | 89° |
| 2026-05-04 22:27 | 49.31464 | 0.73739 | 19059 ft | 336 kts | 89° |
| 2026-05-04 22:27 | 49.31418 | 0.77314 | 18402 ft | 336 kts | 89° |
| 2026-05-04 22:27 | 49.31375 | 0.80873 | 17999 ft | 332 kts | 89° |
| 2026-05-04 22:28 | 49.31331 | 0.84381 | 17601 ft | 328 kts | 89° |
| 2026-05-04 22:28 | 49.31286 | 0.87863 | 17160 ft | 325 kts | 89° |
| 2026-05-04 22:28 | 49.31239 | 0.91315 | 16780 ft | 322 kts | 89° |
| 2026-05-04 22:28 | 49.31191 | 0.94743 | 16522 ft | 322 kts | 89° |
| 2026-05-04 22:29 | 49.31143 | 0.98166 | 16271 ft | 321 kts | 90° |
| 2026-05-04 22:29 | 49.31094 | 1.01579 | 16020 ft | 320 kts | 90° |
| 2026-05-04 22:29 | 49.31044 | 1.04975 | 15775 ft | 318 kts | 90° |
| 2026-05-04 22:29 | 49.30993 | 1.08353 | 15520 ft | 317 kts | 90° |
| 2026-05-04 22:30 | 49.30941 | 1.11719 | 15269 ft | 316 kts | 90° |
| 2026-05-04 22:30 | 49.30889 | 1.15076 | 15019 ft | 314 kts | 90° |
| 2026-05-04 22:30 | 49.30835 | 1.18423 | 14768 ft | 313 kts | 90° |
| 2026-05-04 22:30 | 49.30782 | 1.21752 | 14519 ft | 312 kts | 90° |
| 2026-05-04 22:31 | 49.30727 | 1.25065 | 14279 ft | 311 kts | 90° |
| 2026-05-04 22:31 | 49.30671 | 1.28376 | 14020 ft | 310 kts | 90° |
| 2026-05-04 22:31 | 49.30615 | 1.31669 | 13765 ft | 309 kts | 90° |
| 2026-05-04 22:31 | 49.30559 | 1.34913 | 13522 ft | 308 kts | 90° |
| 2026-05-04 22:32 | 49.30501 | 1.38184 | 13270 ft | 307 kts | 90° |
| 2026-05-04 22:32 | 49.30443 | 1.41445 | 13013 ft | 306 kts | 90° |
| 2026-05-04 22:32 | 49.30384 | 1.44693 | 12769 ft | 304 kts | 90° |
| 2026-05-04 22:32 | 49.30323 | 1.47972 | 12512 ft | 303 kts | 90° |
| 2026-05-04 22:33 | 49.30263 | 1.51152 | 12273 ft | 302 kts | 90° |
| 2026-05-04 22:33 | 49.30202 | 1.54365 | 12018 ft | 301 kts | 90° |
| 2026-05-04 22:33 | 49.30141 | 1.57564 | 11768 ft | 300 kts | 90° |
| 2026-05-04 22:33 | 49.30037 | 1.60743 | 11518 ft | 299 kts | 92° |
| 2026-05-04 22:34 | 49.29884 | 1.63917 | 11267 ft | 298 kts | 92° |
| 2026-05-04 22:34 | 49.29730 | 1.67073 | 11017 ft | 296 kts | 92° |
| 2026-05-04 22:34 | 49.29582 | 1.70214 | 10767 ft | 295 kts | 92° |
| 2026-05-04 22:34 | 49.29439 | 1.73340 | 10517 ft | 294 kts | 92° |
| 2026-05-04 22:35 | 49.29419 | 1.76468 | 10271 ft | 292 kts | 84° |
| 2026-05-04 22:35 | 49.29646 | 1.79555 | 10024 ft | 291 kts | 81° |
| 2026-05-04 22:35 | 49.29926 | 1.82627 | 9766 ft | 291 kts | 80° |
| 2026-05-04 22:35 | 49.30206 | 1.85692 | 9509 ft | 290 kts | 80° |
| 2026-05-04 22:36 | 49.30481 | 1.88742 | 9249 ft | 289 kts | 81° |
| 2026-05-04 22:36 | 49.30753 | 1.91787 | 8994 ft | 288 kts | 81° |
| 2026-05-04 22:36 | 49.31021 | 1.94821 | 8715 ft | 287 kts | 81° |
| 2026-05-04 22:36 | 49.31288 | 1.97850 | 8461 ft | 286 kts | 81° |
| 2026-05-04 22:37 | 49.31552 | 2.00861 | 8206 ft | 285 kts | 81° |
| 2026-05-04 22:37 | 49.31813 | 2.03862 | 8026 ft | 283 kts | 81° |
| 2026-05-04 22:37 | 49.32074 | 2.06860 | 7997 ft | 284 kts | 81° |
| 2026-05-04 22:37 | 49.32334 | 2.09857 | 7997 ft | 284 kts | 81° |
| 2026-05-04 22:38 | 49.32593 | 2.12855 | 8001 ft | 283 kts | 81° |
| 2026-05-04 22:38 | 49.32851 | 2.15847 | 7999 ft | 283 kts | 81° |
| 2026-05-04 22:38 | 49.33108 | 2.18837 | 8001 ft | 283 kts | 81° |
| 2026-05-04 22:38 | 49.33364 | 2.21826 | 7998 ft | 283 kts | 81° |
| 2026-05-04 22:39 | 49.33619 | 2.24820 | 8000 ft | 283 kts | 81° |
| 2026-05-04 22:39 | 49.33874 | 2.27810 | 7998 ft | 283 kts | 81° |
| 2026-05-04 22:39 | 49.34127 | 2.30799 | 7999 ft | 283 kts | 81° |
| 2026-05-04 22:39 | 49.34380 | 2.33786 | 7997 ft | 283 kts | 81° |
| 2026-05-04 22:40 | 49.34632 | 2.36779 | 7998 ft | 283 kts | 81° |
| 2026-05-04 22:40 | 49.34884 | 2.39769 | 7998 ft | 283 kts | 81° |
| 2026-05-04 22:40 | 49.35134 | 2.42762 | 8002 ft | 283 kts | 81° |
| 2026-05-04 22:40 | 49.35386 | 2.45763 | 7875 ft | 283 kts | 81° |
| 2026-05-04 22:41 | 49.35634 | 2.48742 | 7631 ft | 282 kts | 81° |
| 2026-05-04 22:41 | 49.35780 | 2.51739 | 7582 ft | 283 kts | 90° |
| 2026-05-04 22:41 | 49.35437 | 2.54660 | 7569 ft | 283 kts | 109° |
| 2026-05-04 22:41 | 49.34380 | 2.57176 | 7476 ft | 282 kts | 134° |
| 2026-05-04 22:42 | 49.32895 | 2.59118 | 7259 ft | 280 kts | 141° |
| 2026-05-04 22:42 | 49.31351 | 2.60926 | 7019 ft | 278 kts | 141° |
| 2026-05-04 22:42 | 49.29812 | 2.62715 | 6763 ft | 277 kts | 141° |
| 2026-05-04 22:42 | 49.28278 | 2.64505 | 6515 ft | 277 kts | 141° |
| 2026-05-04 22:43 | 49.26751 | 2.66290 | 6266 ft | 276 kts | 141° |
| 2026-05-04 22:43 | 49.25230 | 2.68070 | 6015 ft | 275 kts | 141° |
| 2026-05-04 22:43 | 49.23715 | 2.69845 | 5765 ft | 274 kts | 141° |
| 2026-05-04 22:43 | 49.22204 | 2.71613 | 5514 ft | 273 kts | 141° |
| 2026-05-04 22:44 | 49.20701 | 2.73371 | 5295 ft | 271 kts | 141° |
| 2026-05-04 22:44 | 49.19197 | 2.75129 | 5161 ft | 272 kts | 141° |
| 2026-05-04 22:44 | 49.17700 | 2.76879 | 5029 ft | 271 kts | 141° |
| 2026-05-04 22:44 | 49.16204 | 2.78624 | 4920 ft | 270 kts | 141° |
| 2026-05-04 22:45 | 49.14713 | 2.80364 | 4790 ft | 270 kts | 141° |
| 2026-05-04 22:45 | 49.11734 | 2.83836 | 4533 ft | 269 kts | 141° |
| 2026-05-04 22:45 | 49.10270 | 2.85538 | 4415 ft | 258 kts | 141° |
| 2026-05-04 22:46 | 49.08875 | 2.87153 | 4286 ft | 245 kts | 141° |
| 2026-05-04 22:46 | 49.07548 | 2.88683 | 4149 ft | 234 kts | 141° |
| 2026-05-04 22:46 | 49.06286 | 2.90133 | 4074 ft | 220 kts | 142° |
| 2026-05-04 22:46 | 49.05110 | 2.91481 | 4058 ft | 203 kts | 142° |
| 2026-05-04 22:47 | 49.04006 | 2.92743 | 4074 ft | 196 kts | 142° |
| 2026-05-04 22:47 | 49.02930 | 2.93976 | 4054 ft | 187 kts | 142° |
| 2026-05-04 22:47 | 49.01934 | 2.95115 | 4090 ft | 175 kts | 142° |
| 2026-05-04 22:47 | 49.00891 | 2.96046 | 4074 ft | 176 kts | 160° |
| 2026-05-04 22:48 | 48.99734 | 2.96013 | 4071 ft | 163 kts | 201° |
| 2026-05-04 22:48 | 48.98922 | 2.94901 | 4076 ft | 159 kts | 240° |
| 2026-05-04 22:48 | 48.98749 | 2.93279 | 4071 ft | 158 kts | 278° |
| 2026-05-04 22:48 | 48.99226 | 2.91811 | 4080 ft | 153 kts | 306° |
| 2026-05-04 22:49 | 48.99903 | 2.90611 | 4070 ft | 146 kts | 309° |
| 2026-05-04 22:49 | 49.00562 | 2.89449 | 4073 ft | 143 kts | 305° |
| 2026-05-04 22:49 | 49.00867 | 2.88079 | 4060 ft | 136 kts | 268° |
| 2026-05-04 22:49 | 49.00829 | 2.86651 | 4075 ft | 136 kts | 266° |
| 2026-05-04 22:50 | 49.00785 | 2.85207 | 4076 ft | 137 kts | 265° |
| 2026-05-04 22:50 | 49.00720 | 2.83763 | 4070 ft | 137 kts | 263° |
| 2026-05-04 22:50 | 49.00634 | 2.82319 | 4075 ft | 137 kts | 264° |
| 2026-05-04 22:50 | 49.00565 | 2.80898 | 4062 ft | 135 kts | 263° |
| 2026-05-04 22:51 | 49.00497 | 2.79493 | 3783 ft | 133 kts | 264° |
| 2026-05-04 22:51 | 49.00422 | 2.78065 | 3415 ft | 137 kts | 263° |
| 2026-05-04 22:51 | 49.00336 | 2.76605 | 3065 ft | 139 kts | 263° |
| 2026-05-04 22:51 | 49.00256 | 2.75128 | 2737 ft | 140 kts | 263° |
| 2026-05-04 22:52 | 49.00181 | 2.73646 | 2407 ft | 141 kts | 264° |
| 2026-05-04 22:52 | 49.00106 | 2.72163 | 2076 ft | 141 kts | 264° |
| 2026-05-04 22:52 | 49.00029 | 2.70676 | 1747 ft | 141 kts | 263° |
| 2026-05-04 22:52 | 48.99956 | 2.69223 | 1518 ft | 133 kts | 264° |
| 2026-05-04 22:53 | 48.99885 | 2.67837 | 1348 ft | 131 kts | 263° |
| 2026-05-04 22:53 | 48.99812 | 2.66455 | 1159 ft | 131 kts | 263° |
| 2026-05-04 22:53 | 48.99739 | 2.65075 | 989 ft | 131 kts | 263° |
| 2026-05-04 22:53 | 48.99666 | 2.63696 | 808 ft | 131 kts | 263° |
| 2026-05-04 22:54 | 48.99593 | 2.62316 | 633 ft | 130 kts | 263° |
| 2026-05-04 22:54 | 48.99521 | 2.60941 | 461 ft | 130 kts | 263° |
| 2026-05-04 22:54 | 48.99451 | 2.59587 | 360 ft | 122 kts | 266° |
| 2026-05-04 22:54 | 48.99392 | 2.58447 | 359 ft | 94 kts | 265° |
| 2026-05-04 22:55 | 48.99354 | 2.57768 | 367 ft | 36 kts | 266° |
| 2026-05-04 22:55 | 48.99366 | 2.57399 | 363 ft | 33 kts | 284° |
| 2026-05-04 22:55 | 48.99411 | 2.57151 | 369 ft | 15 kts | 286° |
| 2026-05-04 22:55 | 48.99442 | 2.56986 | 365 ft | 17 kts | 285° |
| 2026-05-04 22:56 | 48.99470 | 2.56818 | 367 ft | 13 kts | 280° |
| 2026-05-04 22:56 | 48.99484 | 2.56678 | 369 ft | 13 kts | 298° |
| 2026-05-04 22:56 | 48.99565 | 2.56632 | 360 ft | 14 kts | 353° |
| 2026-05-04 22:56 | 48.99663 | 2.56618 | 366 ft | 15 kts | 355° |
| 2026-05-04 22:57 | 48.99776 | 2.56606 | 366 ft | 17 kts | 355° |
| 2026-05-04 22:57 | 48.99881 | 2.56593 | 368 ft | 9 kts | 355° |
| 2026-05-04 22:57 | 48.99955 | 2.56586 | 365 ft | 8 kts | 7° |
| 2026-05-04 22:57 | 48.99961 | 2.56608 | 369 ft | 1 kts | 92° |
| 2026-05-04 22:58 | 48.99958 | 2.56616 | 369 ft | 3 kts | 111° |
| 2026-05-04 22:58 | 48.99927 | 2.56728 | 368 ft | 14 kts | 97° |
| 2026-05-04 22:58 | 48.99934 | 2.56886 | 360 ft | 16 kts | 85° |
| 2026-05-04 22:58 | 48.99944 | 2.57074 | 367 ft | 19 kts | 85° |
| 2026-05-04 22:59 | 48.99956 | 2.57279 | 364 ft | 17 kts | 84° |
| 2026-05-04 22:59 | 48.99964 | 2.57445 | 360 ft | 15 kts | 86° |
| 2026-05-04 22:59 | 48.99972 | 2.57593 | 365 ft | 13 kts | 85° |
| 2026-05-04 22:59 | 48.99986 | 2.57710 | 367 ft | 5 kts | 50° |
| 2026-05-04 23:00 | 49.00017 | 2.57728 | 368 ft | 5 kts | 12° |
| 2026-05-04 23:00 | 49.00052 | 2.57731 | 362 ft | 5 kts | 358° |
| 2026-05-04 23:00 | 49.00078 | 2.57729 | 365 ft | 3 kts | 357° |
| 2026-05-04 23:00 | 49.00093 | 2.57727 | 366 ft | 1 kts | 355° |
| 2026-05-04 23:01 | 49.00124 | 2.57723 | 367 ft | 6 kts | 355° |
| 2026-05-04 23:01 | 49.00136 | 2.57722 | 368 ft | 0 kts | 355° |
| 2026-05-04 23:02 | 49.00204 | 2.58608 | 367 ft | 0 kts | 262° |